createdAt,value
2022-08-08T00:01:16.626Z,5.77
2022-08-08T00:03:43.379Z,5.67
2022-08-08T00:06:34.778Z,5.77
2022-08-08T00:09:16.020Z,5.20
2022-08-08T00:12:02.794Z,5.53
2022-08-08T00:14:54.913Z,5.30
2022-08-08T00:17:35.204Z,5.07
2022-08-08T00:20:24.196Z,5.20
2022-08-08T00:22:54.105Z,5.33
2022-08-08T00:25:23.324Z,5.50
2022-08-08T00:27:51.066Z,5.27
2022-08-08T00:30:18.787Z,5.73
2022-08-08T00:32:58.811Z,5.93
2022-08-08T00:35:29.860Z,5.80
2022-08-08T00:38:16.932Z,5.17
2022-08-08T00:41:16.986Z,4.97
2022-08-08T00:44:00.833Z,5.63
2022-08-08T00:46:27.672Z,5.70
2022-08-08T00:49:17.267Z,5.60
2022-08-08T00:52:03.505Z,6.20
2022-08-08T00:54:32.496Z,5.90
2022-08-08T00:57:34.079Z,6.00
2022-08-08T01:00:07.709Z,6.20
2022-08-08T01:03:59.344Z,5.53
2022-08-08T01:05:59.440Z,5.70
2022-08-08T01:08:28.648Z,5.93
2022-08-08T01:10:56.574Z,6.17
2022-08-08T01:13:23.068Z,6.13
2022-08-08T01:16:18.127Z,6.07
2022-08-08T01:19:02.650Z,5.27
2022-08-08T01:22:13.247Z,5.87
2022-08-08T01:25:00.551Z,5.87
2022-08-08T01:27:43.568Z,5.63
2022-08-08T01:30:25.975Z,6.13
2022-08-08T01:33:16.253Z,6.10
2022-08-08T01:36:12.119Z,6.37
2022-08-08T01:38:56.582Z,5.53
2022-08-08T01:41:26.351Z,6.40
2022-08-08T01:44:00.517Z,5.73
2022-08-08T01:46:52.432Z,6.13
2022-08-08T01:49:22.961Z,5.63
2022-08-08T01:52:52.195Z,5.70
2022-08-08T01:56:27.341Z,5.57
2022-08-08T01:58:32.034Z,6.37
2022-08-08T02:01:19.669Z,6.00
2022-08-08T02:04:08.755Z,6.27
2022-08-08T02:06:40.915Z,6.10
2022-08-08T02:09:19.142Z,5.80
2022-08-08T02:12:12.639Z,5.47
2022-08-08T02:14:49.892Z,5.57
2022-08-08T02:17:43.111Z,6.27
2022-08-08T02:20:15.955Z,5.97
2022-08-08T02:22:52.635Z,6.70
2022-08-08T02:25:23.698Z,6.37
2022-08-08T02:28:16.487Z,6.17
2022-08-08T02:31:01.860Z,5.80
2022-08-08T02:33:41.542Z,5.63
2022-08-08T02:36:37.830Z,6.27
2022-08-08T02:39:40.348Z,5.50
2022-08-08T02:42:07.895Z,6.17
2022-08-08T02:44:58.001Z,5.97
2022-08-08T02:47:47.097Z,6.03
2022-08-08T02:50:37.373Z,5.93
2022-08-08T02:53:06.373Z,5.60
2022-08-08T02:55:48.835Z,5.43
2022-08-08T02:58:38.327Z,6.87
2022-08-08T03:01:15.057Z,6.13
2022-08-08T03:05:03.898Z,6.00
2022-08-08T03:07:07.498Z,5.70
2022-08-08T03:10:06.499Z,5.80
2022-08-08T03:13:02.252Z,5.53
2022-08-08T03:15:56.986Z,5.40
2022-08-08T03:18:34.372Z,5.73
2022-08-08T03:21:01.750Z,6.03
2022-08-08T03:23:56.232Z,6.17
2022-08-08T03:26:30.884Z,5.60
2022-08-08T03:29:04.110Z,5.80
2022-08-08T03:32:06.578Z,6.63
2022-08-08T03:34:34.349Z,5.90
2022-08-08T03:37:00.834Z,5.40
2022-08-08T03:39:51.500Z,5.47
2022-08-08T03:42:30.142Z,5.70
2022-08-08T03:44:57.397Z,5.83
2022-08-08T03:47:25.908Z,5.67
2022-08-08T03:50:24.662Z,5.73
2022-08-08T03:52:53.048Z,5.17
2022-08-08T03:55:56.289Z,5.23
2022-08-08T03:58:35.547Z,5.10
2022-08-08T04:01:20.556Z,4.93
2022-08-08T04:03:59.476Z,4.97
2022-08-08T04:06:29.822Z,5.07
2022-08-08T04:08:56.892Z,5.93
2022-08-08T04:11:25.247Z,5.23
2022-08-08T04:14:03.918Z,5.53
2022-08-08T04:16:41.070Z,5.30
2022-08-08T04:19:23.427Z,5.23
2022-08-08T04:21:52.073Z,5.77
2022-08-08T04:24:28.841Z,5.13
2022-08-08T04:26:58.770Z,4.70
2022-08-08T04:29:25.651Z,6.00
2022-08-08T04:31:58.272Z,5.33
2022-08-08T04:34:32.300Z,5.47
2022-08-08T04:37:10.187Z,5.57
2022-08-08T04:40:04.621Z,5.57
2022-08-08T04:42:26.082Z,4.80
2022-08-08T04:44:55.638Z,5.50
2022-08-08T04:47:24.582Z,4.90
2022-08-08T04:50:00.602Z,4.83
2022-08-08T04:52:33.797Z,5.07
2022-08-08T04:55:01.508Z,4.23
2022-08-08T04:57:31.196Z,5.20
2022-08-08T05:00:00.831Z,4.90
2022-08-08T05:02:31.152Z,4.50
2022-08-08T05:04:59.340Z,4.63
2022-08-08T05:07:26.749Z,4.70
2022-08-08T05:10:05.076Z,4.80
2022-08-08T05:12:36.618Z,6.53
2022-08-08T05:15:04.519Z,6.13
2022-08-08T05:17:53.397Z,5.17
2022-08-08T05:20:18.265Z,5.10
2022-08-08T05:22:44.713Z,4.73
2022-08-08T05:25:11.146Z,4.40
2022-08-08T05:27:41.460Z,4.50
2022-08-08T05:30:11.120Z,4.53
2022-08-08T05:32:38.475Z,4.83
2022-08-08T05:35:06.821Z,4.37
2022-08-08T05:37:52.873Z,4.23
2022-08-08T05:40:28.727Z,5.03
2022-08-08T05:42:59.262Z,4.27
2022-08-08T05:45:41.300Z,4.57
2022-08-08T05:48:09.826Z,4.97
2022-08-08T05:50:39.018Z,4.57
2022-08-08T05:53:53.996Z,4.83
2022-08-08T05:56:07.842Z,4.77
2022-08-08T05:58:54.026Z,4.40
2022-08-08T06:01:56.053Z,4.40
2022-08-08T06:04:23.305Z,4.73
2022-08-08T06:06:51.509Z,4.60
2022-08-08T06:09:58.894Z,4.17
2022-08-08T06:12:06.422Z,4.30
2022-08-08T06:14:32.913Z,7.00
2022-08-08T06:17:01.454Z,4.67
2022-08-08T06:19:29.004Z,3.63
2022-08-08T06:22:31.711Z,3.93
2022-08-08T06:24:53.317Z,3.60
2022-08-08T06:27:25.589Z,3.40
2022-08-08T06:30:02.743Z,2.83
2022-08-08T06:32:31.244Z,3.17
2022-08-08T06:36:04.349Z,2.70
2022-08-08T06:37:55.711Z,2.20
2022-08-08T06:40:25.862Z,2.80
2022-08-08T06:42:55.234Z,2.20
2022-08-08T06:45:23.200Z,2.10
2022-08-08T06:47:58.282Z,2.30
2022-08-08T06:50:32.040Z,2.70
2022-08-08T06:53:13.870Z,2.40
2022-08-08T06:55:43.719Z,2.77
2022-08-08T06:58:14.052Z,2.57
2022-08-08T07:00:45.324Z,2.63
2022-08-08T07:04:37.445Z,2.20
2022-08-08T07:06:10.036Z,2.30
2022-08-08T07:08:42.634Z,2.13
2022-08-08T07:11:22.058Z,2.30
2022-08-08T07:14:00.992Z,2.47
2022-08-08T07:16:37.816Z,2.50
2022-08-08T07:19:27.479Z,1.90
2022-08-08T07:22:05.598Z,2.10
2022-08-08T07:24:41.416Z,2.30
2022-08-08T07:27:11.259Z,2.00
2022-08-08T07:30:01.956Z,2.17
2022-08-08T07:32:29.966Z,2.00
2022-08-08T07:35:00.119Z,2.10
2022-08-08T07:37:28.475Z,2.30
2022-08-08T07:40:21.072Z,1.63
2022-08-08T07:42:55.287Z,1.97
2022-08-08T07:45:22.246Z,2.17
2022-08-08T07:47:54.797Z,2.03
2022-08-08T07:50:23.421Z,1.87
2022-08-08T07:52:56.540Z,1.50
2022-08-08T07:55:28.971Z,1.57
2022-08-08T07:58:13.803Z,2.30
2022-08-08T08:00:41.084Z,1.80
2022-08-08T08:03:20.716Z,2.40
2022-08-08T08:05:51.841Z,1.90
2022-08-08T08:08:21.576Z,2.00
2022-08-08T08:10:54.390Z,1.80
2022-08-08T08:13:25.126Z,1.57
2022-08-08T08:15:54.624Z,1.80
2022-08-08T08:18:31.698Z,1.93
2022-08-08T08:20:58.890Z,1.70
2022-08-08T08:23:27.595Z,1.80
2022-08-08T08:25:58.526Z,1.60
2022-08-08T08:28:26.717Z,1.80
2022-08-08T08:30:53.921Z,1.80
2022-08-08T08:33:20.371Z,1.73
2022-08-08T08:36:20.328Z,1.90
2022-08-08T08:38:33.720Z,1.90
2022-08-08T08:41:01.154Z,1.77
2022-08-08T08:43:33.164Z,1.63
2022-08-08T08:46:03.673Z,1.77
2022-08-08T08:48:32.316Z,1.83
2022-08-08T08:51:00.179Z,1.77
2022-08-08T08:53:54.525Z,1.60
2022-08-08T08:56:14.131Z,1.80
2022-08-08T08:58:50.231Z,1.50
2022-08-08T09:01:18.064Z,1.60
2022-08-08T09:03:50.768Z,1.50
2022-08-08T09:06:28.690Z,1.60
2022-08-08T09:09:26.649Z,1.77
2022-08-08T09:12:01.958Z,1.60
2022-08-08T09:14:34.458Z,1.00
2022-08-08T09:17:05.485Z,0.90
2022-08-08T09:22:00.135Z,1.30
2022-08-08T09:22:26.705Z,1.40
2022-08-08T09:24:54.950Z,1.03
2022-08-08T09:27:22.693Z,1.30
2022-08-08T09:30:10.037Z,2.00
2022-08-08T09:32:38.319Z,1.48
2022-08-08T09:35:10.964Z,1.73
2022-08-08T09:38:00.888Z,1.27
2022-08-08T09:40:43.847Z,1.75
2022-08-08T09:43:40.835Z,1.52
2022-08-08T09:46:16.707Z,1.40
2022-08-08T09:48:53.787Z,1.50
2022-08-08T09:51:23.338Z,1.88
2022-08-08T09:54:07.510Z,1.48
2022-08-08T09:56:41.471Z,1.70
2022-08-08T09:59:40.393Z,1.40
2022-08-08T10:02:12.947Z,1.58
2022-08-08T10:04:47.754Z,1.42
2022-08-08T10:07:15.977Z,1.48
2022-08-08T10:09:59.479Z,1.40
2022-08-08T10:12:53.077Z,1.50
2022-08-08T10:15:20.242Z,1.30
2022-08-08T10:18:05.601Z,1.50
2022-08-08T10:20:58.146Z,1.45
2022-08-08T10:23:51.033Z,1.63
2022-08-08T10:26:31.058Z,1.45
2022-08-08T10:29:11.802Z,1.30
2022-08-08T10:32:05.911Z,1.30
2022-08-08T10:34:35.111Z,1.77
2022-08-08T10:37:02.154Z,2.75
2022-08-08T10:39:54.683Z,1.75
2022-08-08T10:42:27.081Z,1.40
2022-08-08T10:45:00.258Z,1.50
2022-08-08T10:47:42.971Z,1.30
2022-08-08T10:50:10.728Z,1.42
2022-08-08T10:52:45.060Z,1.60
2022-08-08T10:55:14.183Z,1.60
2022-08-08T10:57:50.534Z,2.10
2022-08-08T11:00:25.639Z,2.08
2022-08-08T11:02:52.768Z,1.40
2022-08-08T11:05:19.236Z,1.35
2022-08-08T11:08:37.710Z,1.60
2022-08-08T11:10:36.027Z,1.35
2022-08-08T11:13:29.022Z,1.60
2022-08-08T11:15:58.754Z,1.67
2022-08-08T11:18:29.910Z,1.40
2022-08-08T11:20:57.525Z,1.20
2022-08-08T11:23:25.113Z,1.13
2022-08-08T11:25:58.880Z,1.13
2022-08-08T11:28:30.446Z,1.20
2022-08-08T11:30:59.901Z,1.10
2022-08-08T11:33:51.167Z,1.08
2022-08-08T11:36:15.146Z,1.20
2022-08-08T11:38:53.735Z,1.20
2022-08-08T11:41:22.285Z,1.45
2022-08-08T11:43:49.209Z,1.67
2022-08-08T11:46:17.993Z,1.33
2022-08-08T11:48:47.352Z,1.40
2022-08-08T11:51:30.545Z,1.05
2022-08-08T11:54:04.284Z,1.83
2022-08-08T11:56:35.042Z,1.40
2022-08-08T11:59:11.789Z,1.33
2022-08-08T12:01:38.632Z,0.98
2022-08-08T12:04:05.883Z,1.10
2022-08-08T12:06:33.466Z,1.27
2022-08-08T12:09:17.127Z,1.08
2022-08-08T12:11:46.045Z,1.02
2022-08-08T12:14:22.204Z,1.10
2022-08-08T12:16:52.455Z,1.33
2022-08-08T12:19:37.425Z,1.10
2022-08-08T12:22:13.494Z,0.90
2022-08-08T12:24:53.878Z,1.40
2022-08-08T12:27:26.500Z,1.05
2022-08-08T12:29:57.341Z,0.90
2022-08-08T12:32:23.791Z,0.98
2022-08-08T12:35:01.451Z,0.88
2022-08-08T12:37:40.158Z,0.98
2022-08-08T12:40:13.786Z,0.60
2022-08-08T12:42:50.685Z,0.75
2022-08-08T12:45:53.780Z,0.77
2022-08-08T12:48:18.174Z,0.95
2022-08-08T12:50:54.830Z,1.05
2022-08-08T12:53:30.038Z,0.90
2022-08-08T12:56:18.392Z,0.70
2022-08-08T12:58:47.955Z,0.80
2022-08-08T13:01:15.457Z,0.70
2022-08-08T13:03:49.113Z,1.30
2022-08-08T13:06:19.229Z,1.00
2022-08-08T13:08:53.768Z,0.80
2022-08-08T13:11:28.720Z,0.90
2022-08-08T13:14:15.489Z,1.27
2022-08-08T13:16:42.735Z,2.55
2022-08-08T13:19:17.904Z,2.20
2022-08-08T13:21:52.979Z,1.70
2022-08-08T13:24:42.083Z,1.00
2022-08-08T13:27:15.838Z,0.80
2022-08-08T13:29:55.750Z,0.80
2022-08-08T13:32:23.639Z,1.00
2022-08-08T13:34:53.284Z,0.85
2022-08-08T13:37:52.072Z,0.80
2022-08-08T13:40:07.492Z,0.80
2022-08-08T13:42:34.567Z,0.80
2022-08-08T13:45:01.731Z,1.15
2022-08-08T13:47:31.163Z,0.80
2022-08-08T13:50:35.745Z,1.15
2022-08-08T13:52:50.703Z,0.98
2022-08-08T13:55:28.750Z,1.30
2022-08-08T13:58:07.754Z,1.15
2022-08-08T14:00:45.155Z,1.00
2022-08-08T14:03:53.955Z,1.00
2022-08-08T14:06:33.478Z,1.17
2022-08-08T14:08:57.680Z,1.17
2022-08-08T14:11:25.336Z,0.98
2022-08-08T14:14:00.452Z,2.97
2022-08-08T14:16:27.552Z,1.38
2022-08-08T14:18:55.728Z,1.52
2022-08-08T14:21:23.868Z,0.90
2022-08-08T14:24:07.385Z,1.55
2022-08-08T14:26:45.990Z,1.10
2022-08-08T14:29:28.279Z,1.05
2022-08-08T14:32:09.127Z,1.55
2022-08-08T14:34:42.824Z,1.80
2022-08-08T14:37:10.144Z,1.63
2022-08-08T14:39:50.826Z,1.25
2022-08-08T14:42:30.410Z,1.98
2022-08-08T14:45:00.268Z,1.45
2022-08-08T14:47:27.161Z,1.25
2022-08-08T14:50:10.673Z,1.15
2022-08-08T14:52:41.473Z,1.13
2022-08-08T14:55:09.937Z,0.80
2022-08-08T14:58:02.734Z,1.10
2022-08-08T15:00:27.915Z,1.23
2022-08-08T15:03:14.587Z,1.10
2022-08-08T15:05:53.337Z,0.98
2022-08-08T15:08:34.986Z,1.30
2022-08-08T15:11:05.540Z,1.10
2022-08-08T15:13:39.839Z,1.08
2022-08-08T15:16:12.210Z,0.93
2022-08-08T15:18:50.169Z,1.08
2022-08-08T15:21:18.520Z,1.55
2022-08-08T15:23:51.131Z,1.17
2022-08-08T15:26:18.674Z,1.05
2022-08-08T15:28:45.199Z,1.05
2022-08-08T15:31:25.789Z,1.25
2022-08-08T15:33:58.437Z,1.00
2022-08-08T15:36:28.650Z,1.20
2022-08-08T15:38:55.400Z,0.90
2022-08-08T15:41:24.522Z,0.90
2022-08-08T15:44:00.681Z,0.75
2022-08-08T15:46:35.242Z,1.30
2022-08-08T15:49:01.943Z,1.20
2022-08-08T15:51:33.616Z,0.98
2022-08-08T15:54:00.788Z,1.10
2022-08-08T15:56:27.222Z,0.82
2022-08-08T15:58:53.611Z,0.93
2022-08-08T16:01:23.538Z,1.83
2022-08-08T16:04:07.540Z,1.17
2022-08-08T16:06:50.288Z,0.98
2022-08-08T16:13:12.124Z,0.73
2022-08-08T16:13:15.025Z,0.90
2022-08-08T16:14:53.459Z,0.80
2022-08-08T16:17:58.097Z,0.80
2022-08-08T16:20:12.687Z,1.10
2022-08-08T16:22:41.731Z,1.20
2022-08-08T16:25:08.923Z,1.38
2022-08-08T16:27:36.887Z,0.90
2022-08-08T16:30:13.220Z,1.00
2022-08-08T16:32:42.671Z,0.60
2022-08-08T16:35:09.651Z,1.10
2022-08-08T16:37:40.304Z,0.90
2022-08-08T16:40:10.365Z,0.80
2022-08-08T16:42:40.524Z,1.00
2022-08-08T16:46:35.658Z,1.00
2022-08-08T16:47:56.490Z,0.80
2022-08-08T16:50:23.168Z,1.98
2022-08-08T16:55:05.351Z,2.33
2022-08-08T16:55:55.368Z,4.20
2022-08-08T16:58:25.571Z,0.80
2022-08-08T17:00:53.048Z,1.20
2022-08-08T17:03:24.802Z,1.05
2022-08-08T17:06:01.833Z,1.13
2022-08-08T17:08:28.608Z,1.08
2022-08-08T17:10:58.716Z,0.90
2022-08-08T17:13:41.301Z,0.95
2022-08-08T17:16:17.113Z,1.05
2022-08-08T17:18:45.421Z,0.80
2022-08-08T17:21:12.498Z,1.00
2022-08-08T17:24:00.024Z,0.90
2022-08-08T17:26:28.957Z,0.98
2022-08-08T17:28:56.116Z,0.90
2022-08-08T17:31:45.160Z,1.20
2022-08-08T17:34:36.933Z,1.00
2022-08-08T17:37:00.957Z,1.00
2022-08-08T17:40:04.568Z,0.90
2022-08-08T17:42:17.896Z,1.20
2022-08-08T17:44:45.095Z,20.08
2022-08-08T17:47:15.949Z,1.45
2022-08-08T17:49:43.571Z,1.30
2022-08-08T17:52:10.576Z,1.55
2022-08-08T17:54:37.224Z,1.30
2022-08-08T17:57:03.793Z,1.13
2022-08-08T17:59:36.375Z,1.00
2022-08-08T18:02:16.167Z,1.23
2022-08-08T18:04:49.452Z,1.00
2022-08-08T18:08:02.941Z,1.02
2022-08-08T18:10:04.540Z,1.52
2022-08-08T18:12:31.009Z,1.10
2022-08-08T18:14:57.652Z,0.80
2022-08-08T18:17:28.532Z,0.93
2022-08-08T18:20:36.595Z,1.10
2022-08-08T18:22:59.558Z,1.20
2022-08-08T18:25:26.037Z,1.02
2022-08-08T18:28:03.765Z,0.93
2022-08-08T18:30:30.215Z,0.90
2022-08-08T18:32:58.866Z,1.20
2022-08-08T18:35:34.214Z,0.93
2022-08-08T18:38:17.076Z,1.10
2022-08-08T18:40:45.707Z,0.90
2022-08-08T18:43:16.603Z,1.00
2022-08-08T18:45:44.762Z,0.93
2022-08-08T18:48:27.562Z,0.90
2022-08-08T18:50:58.745Z,0.93
2022-08-08T18:53:25.727Z,1.00
2022-08-08T18:56:22.219Z,1.10
2022-08-08T18:58:49.405Z,1.03
2022-08-08T19:02:14.195Z,1.03
2022-08-08T19:04:10.412Z,1.20
2022-08-08T19:06:37.813Z,1.10
2022-08-08T19:09:12.936Z,0.90
2022-08-08T19:11:40.291Z,1.30
2022-08-08T19:14:13.213Z,1.07
2022-08-08T19:16:46.927Z,0.90
2022-08-08T19:19:14.246Z,0.90
2022-08-08T19:21:48.601Z,1.00
2022-08-08T19:24:42.211Z,0.97
2022-08-08T19:27:03.095Z,0.90
2022-08-08T19:29:30.485Z,1.50
2022-08-08T19:31:57.437Z,1.30
2022-08-08T19:34:35.764Z,1.20
2022-08-08T19:37:07.617Z,1.20
2022-08-08T19:39:42.783Z,1.50
2022-08-08T19:42:13.526Z,1.70
2022-08-08T19:44:45.802Z,3.10
2022-08-08T19:47:12.845Z,2.00
2022-08-08T19:49:39.330Z,1.67
2022-08-08T19:52:10.499Z,1.20
2022-08-08T19:54:38.352Z,1.33
2022-08-08T19:57:08.008Z,1.30
2022-08-08T19:59:35.115Z,1.47
2022-08-08T20:02:05.060Z,1.27
2022-08-08T20:04:32.490Z,1.10
2022-08-08T20:07:05.622Z,1.13
2022-08-08T20:09:56.209Z,1.10
2022-08-08T20:12:32.492Z,4.20
2022-08-08T20:15:02.013Z,2.30
2022-08-08T20:17:41.913Z,2.40
2022-08-08T20:20:09.991Z,1.70
2022-08-08T20:22:40.344Z,1.60
2022-08-08T20:25:08.116Z,1.40
2022-08-08T20:27:49.250Z,1.50
2022-08-08T20:30:52.404Z,1.63
2022-08-08T20:33:17.181Z,1.67
2022-08-08T20:35:57.987Z,1.47
2022-08-08T20:38:29.219Z,1.50
2022-08-08T20:40:59.564Z,1.57
2022-08-08T20:43:43.720Z,1.37
2022-08-08T20:46:13.393Z,1.77
2022-08-08T20:48:39.794Z,1.57
2022-08-08T20:51:10.050Z,1.70
2022-08-08T20:53:59.966Z,1.37
2022-08-08T20:56:35.231Z,1.77
2022-08-08T20:59:03.236Z,2.03
2022-08-08T21:01:32.468Z,2.03
2022-08-08T21:04:14.357Z,1.80
2022-08-08T21:06:52.954Z,1.90
2022-08-08T21:09:20.629Z,2.43
2022-08-08T21:11:51.568Z,2.80
2022-08-08T21:14:18.929Z,1.70
2022-08-08T21:17:00.375Z,1.17
2022-08-08T21:19:44.384Z,1.40
2022-08-08T21:22:13.769Z,1.53
2022-08-08T21:24:52.171Z,1.20
2022-08-08T21:27:38.839Z,1.37
2022-08-08T21:30:16.281Z,1.70
2022-08-08T21:32:51.712Z,1.50
2022-08-08T21:36:18.666Z,1.40
2022-08-08T21:38:08.547Z,1.43
2022-08-08T21:40:56.508Z,1.30
2022-08-08T21:43:33.336Z,1.43
2022-08-08T21:48:04.552Z,1.50
2022-08-08T21:48:49.433Z,1.50
2022-08-08T21:52:09.835Z,1.23
2022-08-08T21:54:31.358Z,1.20
2022-08-08T21:56:51.516Z,1.30
2022-08-08T21:59:18.075Z,1.37
2022-08-08T22:01:52.455Z,1.50
2022-08-08T22:04:22.446Z,1.50
2022-08-08T22:06:51.483Z,1.10
2022-08-08T22:09:18.748Z,1.47
2022-08-08T22:11:59.097Z,1.10
2022-08-08T22:14:33.463Z,1.10
2022-08-08T22:17:01.210Z,1.20
2022-08-08T22:19:29.513Z,1.30
2022-08-08T22:21:56.297Z,1.20
2022-08-08T22:24:28.238Z,1.10
2022-08-08T22:27:01.754Z,1.00
2022-08-08T22:30:01.670Z,1.37
2022-08-08T22:32:19.196Z,1.47
2022-08-08T22:34:51.296Z,1.50
2022-08-08T22:37:28.156Z,1.03
2022-08-08T22:40:05.199Z,1.10
2022-08-08T22:42:34.780Z,1.33
2022-08-08T22:45:01.905Z,1.20
2022-08-08T22:47:37.608Z,1.10
2022-08-08T22:50:06.051Z,1.37
2022-08-08T22:53:22.543Z,1.30
2022-08-08T22:55:58.290Z,1.30
2022-08-08T22:58:22.089Z,1.30
2022-08-08T23:00:55.080Z,1.50
2022-08-08T23:03:21.653Z,1.30
2022-08-08T23:05:49.687Z,1.27
2022-08-08T23:08:19.827Z,1.23
2022-08-08T23:10:53.053Z,1.30
2022-08-08T23:13:25.618Z,1.70
2022-08-08T23:16:37.965Z,1.67
2022-08-08T23:18:55.036Z,1.30
2022-08-08T23:21:21.479Z,1.30
2022-08-08T23:23:48.453Z,1.33
2022-08-08T23:26:15.352Z,1.30
2022-08-08T23:28:41.741Z,1.60
2022-08-08T23:31:08.150Z,1.30
2022-08-08T23:34:15.778Z,1.50
2022-08-08T23:36:26.473Z,1.60
2022-08-08T23:38:53.049Z,1.53
2022-08-08T23:41:24.788Z,1.80
2022-08-08T23:43:54.362Z,1.63
2022-08-08T23:49:06.938Z,1.37
2022-08-08T23:49:18.492Z,1.27
2022-08-08T23:52:06.259Z,1.67
2022-08-08T23:54:42.478Z,1.40
2022-08-08T23:57:27.755Z,1.57
